Terminal Aerodrome Forecast
Issued by NWS

Home | Current Version | Previous Version | Text Only | Print | Product List | Glossary On
Versions: 1 2 3 4 5 6 7 8 9 10 11 12
390
FTUS46 KSGX 291728
TAFTRM
TAF
KTRM 291728Z 2918/3018 VRB06KT P6SM SCT200
     FM292000 14010KT P6SM SCT200
     FM300000 VRB06KT P6SM SCT200
     FM300300 33010KT P6SM SCT200
     FM301000 VRB06KT P6SM SCT200=

USA.gov is the U.S. government's official web portal to all federal, state and local government web resources and services.